sensor_id;sensor_type;location;lat;lon;timestamp;P1;durP1;ratioP1;P2;durP2;ratioP2
67904;SDS011;54709;43.614;1.576;2023-01-05T00:01:14;59.42;;;42.00;;
67904;SDS011;54709;43.614;1.576;2023-01-05T00:03:39;59.97;;;40.70;;
67904;SDS011;54709;43.614;1.576;2023-01-05T00:06:06;53.70;;;39.45;;
67904;SDS011;54709;43.614;1.576;2023-01-05T00:08:35;52.85;;;37.85;;
67904;SDS011;54709;43.614;1.576;2023-01-05T00:11:10;51.90;;;36.78;;
67904;SDS011;54709;43.614;1.576;2023-01-05T00:13:59;56.45;;;39.90;;
67904;SDS011;54709;43.614;1.576;2023-01-05T00:16:43;55.05;;;37.47;;
67904;SDS011;54709;43.614;1.576;2023-01-05T00:19:26;59.53;;;40.15;;
67904;SDS011;54709;43.614;1.576;2023-01-05T00:24:55;52.58;;;39.42;;
67904;SDS011;54709;43.614;1.576;2023-01-05T00:27:39;52.63;;;37.08;;
67904;SDS011;54709;43.614;1.576;2023-01-05T00:30:05;49.97;;;37.60;;
67904;SDS011;54709;43.614;1.576;2023-01-05T00:32:31;56.83;;;39.35;;
67904;SDS011;54709;43.614;1.576;2023-01-05T00:34:57;54.45;;;40.33;;
67904;SDS011;54709;43.614;1.576;2023-01-05T00:37:24;51.63;;;37.47;;
67904;SDS011;54709;43.614;1.576;2023-01-05T00:39:51;53.05;;;39.28;;
67904;SDS011;54709;43.614;1.576;2023-01-05T00:42:17;50.60;;;36.78;;
67904;SDS011;54709;43.614;1.576;2023-01-05T00:44:42;46.25;;;34.60;;
67904;SDS011;54709;43.614;1.576;2023-01-05T00:47:08;46.67;;;34.00;;
67904;SDS011;54709;43.614;1.576;2023-01-05T00:49:33;43.25;;;31.45;;
67904;SDS011;54709;43.614;1.576;2023-01-05T00:51:59;40.47;;;30.40;;
67904;SDS011;54709;43.614;1.576;2023-01-05T00:54:24;39.63;;;30.33;;
67904;SDS011;54709;43.614;1.576;2023-01-05T00:56:50;39.90;;;29.33;;
67904;SDS011;54709;43.614;1.576;2023-01-05T00:59:16;43.22;;;30.05;;
67904;SDS011;54709;43.614;1.576;2023-01-05T01:01:45;45.38;;;33.22;;
67904;SDS011;54709;43.614;1.576;2023-01-05T01:04:11;46.28;;;33.55;;
67904;SDS011;54709;43.614;1.576;2023-01-05T01:06:37;44.22;;;31.23;;
67904;SDS011;54709;43.614;1.576;2023-01-05T01:09:02;42.67;;;31.25;;
67904;SDS011;54709;43.614;1.576;2023-01-05T01:11:28;39.88;;;29.20;;
67904;SDS011;54709;43.614;1.576;2023-01-05T01:13:54;41.70;;;30.13;;
67904;SDS011;54709;43.614;1.576;2023-01-05T01:16:19;38.80;;;27.95;;
67904;SDS011;54709;43.614;1.576;2023-01-05T01:18:45;40.38;;;28.48;;
67904;SDS011;54709;43.614;1.576;2023-01-05T01:21:11;37.63;;;27.85;;
67904;SDS011;54709;43.614;1.576;2023-01-05T01:23:36;36.22;;;27.13;;
67904;SDS011;54709;43.614;1.576;2023-01-05T01:26:03;34.35;;;27.27;;
67904;SDS011;54709;43.614;1.576;2023-01-05T01:28:32;35.13;;;24.70;;
67904;SDS011;54709;43.614;1.576;2023-01-05T01:30:58;38.35;;;25.90;;
67904;SDS011;54709;43.614;1.576;2023-01-05T01:33:24;31.17;;;22.45;;
67904;SDS011;54709;43.614;1.576;2023-01-05T01:35:50;31.88;;;22.48;;
67904;SDS011;54709;43.614;1.576;2023-01-05T01:38:15;32.40;;;24.77;;
67904;SDS011;54709;43.614;1.576;2023-01-05T01:40:42;33.72;;;24.10;;
67904;SDS011;54709;43.614;1.576;2023-01-05T01:45:38;36.13;;;25.73;;
67904;SDS011;54709;43.614;1.576;2023-01-05T01:48:04;33.28;;;25.10;;
67904;SDS011;54709;43.614;1.576;2023-01-05T01:50:30;39.08;;;26.88;;
67904;SDS011;54709;43.614;1.576;2023-01-05T01:53:05;36.80;;;26.92;;
67904;SDS011;54709;43.614;1.576;2023-01-05T01:55:33;35.17;;;27.35;;
67904;SDS011;54709;43.614;1.576;2023-01-05T01:58:00;41.13;;;28.23;;
67904;SDS011;54709;43.614;1.576;2023-01-05T02:00:27;39.45;;;28.55;;
67904;SDS011;54709;43.614;1.576;2023-01-05T02:02:53;42.45;;;30.33;;
67904;SDS011;54709;43.614;1.576;2023-01-05T02:05:20;48.08;;;32.47;;
67904;SDS011;54709;43.614;1.576;2023-01-05T02:07:47;46.38;;;31.52;;
67904;SDS011;54709;43.614;1.576;2023-01-05T02:10:14;44.70;;;32.10;;
67904;SDS011;54709;43.614;1.576;2023-01-05T02:15:34;44.60;;;32.65;;
67904;SDS011;54709;43.614;1.576;2023-01-05T02:18:13;41.97;;;31.33;;
67904;SDS011;54709;43.614;1.576;2023-01-05T02:37:06;36.35;;;27.30;;
67904;SDS011;54709;43.614;1.576;2023-01-05T02:39:55;37.30;;;27.15;;
67904;SDS011;54709;43.614;1.576;2023-01-05T02:42:24;35.97;;;27.02;;
67904;SDS011;54709;43.614;1.576;2023-01-05T02:44:51;33.85;;;26.67;;
67904;SDS011;54709;43.614;1.576;2023-01-05T02:52:30;38.17;;;27.23;;
67904;SDS011;54709;43.614;1.576;2023-01-05T02:55:03;35.10;;;25.92;;
67904;SDS011;54709;43.614;1.576;2023-01-05T02:57:32;38.50;;;26.65;;
67904;SDS011;54709;43.614;1.576;2023-01-05T03:00:21;37.63;;;26.77;;
67904;SDS011;54709;43.614;1.576;2023-01-05T03:02:51;34.05;;;25.85;;
67904;SDS011;54709;43.614;1.576;2023-01-05T03:05:26;33.10;;;24.88;;
67904;SDS011;54709;43.614;1.576;2023-01-05T03:08:03;31.90;;;24.00;;
67904;SDS011;54709;43.614;1.576;2023-01-05T03:10:39;31.50;;;23.77;;
67904;SDS011;54709;43.614;1.576;2023-01-05T03:13:56;32.53;;;24.05;;
67904;SDS011;54709;43.614;1.576;2023-01-05T03:16:27;32.33;;;23.70;;
67904;SDS011;54709;43.614;1.576;2023-01-05T03:18:54;29.70;;;23.63;;
67904;SDS011;54709;43.614;1.576;2023-01-05T03:21:39;32.33;;;24.70;;
67904;SDS011;54709;43.614;1.576;2023-01-05T03:24:23;30.95;;;23.52;;
67904;SDS011;54709;43.614;1.576;2023-01-05T03:27:07;30.95;;;23.38;;
67904;SDS011;54709;43.614;1.576;2023-01-05T03:29:52;31.85;;;23.25;;
67904;SDS011;54709;43.614;1.576;2023-01-05T03:32:37;30.98;;;22.90;;
67904;SDS011;54709;43.614;1.576;2023-01-05T03:35:26;32.00;;;23.65;;
67904;SDS011;54709;43.614;1.576;2023-01-05T03:38:02;34.10;;;24.95;;
67904;SDS011;54709;43.614;1.576;2023-01-05T03:40:42;30.20;;;23.40;;
67904;SDS011;54709;43.614;1.576;2023-01-05T03:43:08;33.25;;;24.88;;
67904;SDS011;54709;43.614;1.576;2023-01-05T03:45:37;30.38;;;24.10;;
67904;SDS011;54709;43.614;1.576;2023-01-05T03:48:04;34.72;;;24.35;;
67904;SDS011;54709;43.614;1.576;2023-01-05T03:50:30;32.63;;;24.88;;
67904;SDS011;54709;43.614;1.576;2023-01-05T03:52:55;30.73;;;24.20;;
67904;SDS011;54709;43.614;1.576;2023-01-05T03:55:21;35.67;;;25.63;;
67904;SDS011;54709;43.614;1.576;2023-01-05T03:57:46;37.03;;;26.65;;
67904;SDS011;54709;43.614;1.576;2023-01-05T04:00:12;33.92;;;25.83;;
67904;SDS011;54709;43.614;1.576;2023-01-05T04:02:38;32.17;;;24.50;;
67904;SDS011;54709;43.614;1.576;2023-01-05T04:05:03;31.02;;;23.95;;
67904;SDS011;54709;43.614;1.576;2023-01-05T04:07:29;31.92;;;23.95;;
67904;SDS011;54709;43.614;1.576;2023-01-05T04:09:55;31.10;;;22.85;;
67904;SDS011;54709;43.614;1.576;2023-01-05T04:12:20;31.73;;;22.92;;
67904;SDS011;54709;43.614;1.576;2023-01-05T04:14:45;30.83;;;22.65;;
67904;SDS011;54709;43.614;1.576;2023-01-05T04:17:11;32.33;;;22.67;;
67904;SDS011;54709;43.614;1.576;2023-01-05T04:19:36;30.73;;;22.75;;
67904;SDS011;54709;43.614;1.576;2023-01-05T04:22:01;29.42;;;22.77;;
67904;SDS011;54709;43.614;1.576;2023-01-05T04:24:27;30.80;;;23.25;;
67904;SDS011;54709;43.614;1.576;2023-01-05T04:26:52;29.20;;;22.05;;
67904;SDS011;54709;43.614;1.576;2023-01-05T04:29:18;29.90;;;21.85;;
67904;SDS011;54709;43.614;1.576;2023-01-05T04:31:43;28.92;;;22.40;;
67904;SDS011;54709;43.614;1.576;2023-01-05T04:34:08;28.85;;;21.80;;
67904;SDS011;54709;43.614;1.576;2023-01-05T04:36:34;27.90;;;19.92;;
67904;SDS011;54709;43.614;1.576;2023-01-05T04:38:59;27.98;;;20.08;;
67904;SDS011;54709;43.614;1.576;2023-01-05T04:41:25;26.50;;;19.13;;
67904;SDS011;54709;43.614;1.576;2023-01-05T04:43:50;25.63;;;19.88;;
67904;SDS011;54709;43.614;1.576;2023-01-05T04:46:15;24.98;;;19.05;;
67904;SDS011;54709;43.614;1.576;2023-01-05T04:48:41;25.52;;;18.60;;
67904;SDS011;54709;43.614;1.576;2023-01-05T04:51:06;25.60;;;18.38;;
67904;SDS011;54709;43.614;1.576;2023-01-05T04:53:31;24.45;;;17.23;;
67904;SDS011;54709;43.614;1.576;2023-01-05T04:55:57;23.17;;;15.63;;
67904;SDS011;54709;43.614;1.576;2023-01-05T04:58:23;18.90;;;13.77;;
67904;SDS011;54709;43.614;1.576;2023-01-05T05:00:48;18.13;;;13.52;;
67904;SDS011;54709;43.614;1.576;2023-01-05T05:03:14;20.58;;;13.27;;
67904;SDS011;54709;43.614;1.576;2023-01-05T05:05:40;19.85;;;12.50;;
67904;SDS011;54709;43.614;1.576;2023-01-05T05:08:05;16.55;;;12.55;;
67904;SDS011;54709;43.614;1.576;2023-01-05T05:10:31;17.42;;;12.68;;
67904;SDS011;54709;43.614;1.576;2023-01-05T05:12:57;18.95;;;13.45;;
67904;SDS011;54709;43.614;1.576;2023-01-05T05:15:23;17.38;;;13.88;;
67904;SDS011;54709;43.614;1.576;2023-01-05T05:17:48;17.95;;;14.13;;
67904;SDS011;54709;43.614;1.576;2023-01-05T05:20:14;19.92;;;14.65;;
67904;SDS011;54709;43.614;1.576;2023-01-05T05:22:39;20.17;;;14.83;;
67904;SDS011;54709;43.614;1.576;2023-01-05T05:25:05;20.58;;;14.57;;
67904;SDS011;54709;43.614;1.576;2023-01-05T05:27:31;21.10;;;15.48;;
67904;SDS011;54709;43.614;1.576;2023-01-05T05:29:56;21.45;;;15.55;;
67904;SDS011;54709;43.614;1.576;2023-01-05T05:32:21;21.67;;;16.15;;
67904;SDS011;54709;43.614;1.576;2023-01-05T05:34:47;21.67;;;15.68;;
67904;SDS011;54709;43.614;1.576;2023-01-05T05:37:12;19.90;;;13.82;;
67904;SDS011;54709;43.614;1.576;2023-01-05T05:39:38;20.13;;;14.07;;
67904;SDS011;54709;43.614;1.576;2023-01-05T05:42:03;18.45;;;14.07;;
67904;SDS011;54709;43.614;1.576;2023-01-05T05:44:28;16.45;;;12.65;;
67904;SDS011;54709;43.614;1.576;2023-01-05T05:46:54;16.48;;;12.82;;
67904;SDS011;54709;43.614;1.576;2023-01-05T05:49:19;15.00;;;11.18;;
67904;SDS011;54709;43.614;1.576;2023-01-05T05:51:45;17.05;;;11.70;;
67904;SDS011;54709;43.614;1.576;2023-01-05T05:54:10;14.38;;;10.82;;
67904;SDS011;54709;43.614;1.576;2023-01-05T05:56:35;14.60;;;11.48;;
67904;SDS011;54709;43.614;1.576;2023-01-05T05:59:01;18.38;;;11.82;;
67904;SDS011;54709;43.614;1.576;2023-01-05T06:01:26;18.15;;;11.65;;
67904;SDS011;54709;43.614;1.576;2023-01-05T06:03:52;17.40;;;12.18;;
67904;SDS011;54709;43.614;1.576;2023-01-05T06:06:17;13.90;;;10.63;;
67904;SDS011;54709;43.614;1.576;2023-01-05T06:08:42;16.02;;;10.88;;
67904;SDS011;54709;43.614;1.576;2023-01-05T06:11:08;14.70;;;10.68;;
67904;SDS011;54709;43.614;1.576;2023-01-05T06:13:33;15.73;;;11.23;;
67904;SDS011;54709;43.614;1.576;2023-01-05T06:15:59;14.38;;;10.32;;
67904;SDS011;54709;43.614;1.576;2023-01-05T06:18:24;13.55;;;10.35;;
67904;SDS011;54709;43.614;1.576;2023-01-05T06:20:52;16.77;;;11.18;;
67904;SDS011;54709;43.614;1.576;2023-01-05T06:23:17;15.13;;;10.93;;
67904;SDS011;54709;43.614;1.576;2023-01-05T06:25:43;13.50;;;10.25;;
67904;SDS011;54709;43.614;1.576;2023-01-05T06:28:08;17.15;;;11.98;;
67904;SDS011;54709;43.614;1.576;2023-01-05T06:30:34;20.33;;;11.48;;
67904;SDS011;54709;43.614;1.576;2023-01-05T06:32:59;16.75;;;10.95;;
67904;SDS011;54709;43.614;1.576;2023-01-05T06:35:25;13.45;;;10.43;;
67904;SDS011;54709;43.614;1.576;2023-01-05T06:37:50;13.40;;;9.75;;
67904;SDS011;54709;43.614;1.576;2023-01-05T06:40:15;13.68;;;9.75;;
67904;SDS011;54709;43.614;1.576;2023-01-05T06:42:41;12.23;;;8.98;;
67904;SDS011;54709;43.614;1.576;2023-01-05T06:45:08;13.27;;;9.57;;
67904;SDS011;54709;43.614;1.576;2023-01-05T06:47:34;15.20;;;8.93;;
67904;SDS011;54709;43.614;1.576;2023-01-05T06:50:00;15.35;;;9.43;;
67904;SDS011;54709;43.614;1.576;2023-01-05T06:52:25;15.13;;;9.63;;
67904;SDS011;54709;43.614;1.576;2023-01-05T06:54:50;12.20;;;9.32;;
67904;SDS011;54709;43.614;1.576;2023-01-05T06:57:16;13.90;;;10.57;;
67904;SDS011;54709;43.614;1.576;2023-01-05T06:59:41;16.23;;;10.57;;
67904;SDS011;54709;43.614;1.576;2023-01-05T07:02:14;15.05;;;10.65;;
67904;SDS011;54709;43.614;1.576;2023-01-05T07:04:40;13.20;;;9.82;;
67904;SDS011;54709;43.614;1.576;2023-01-05T07:07:05;16.52;;;10.40;;
67904;SDS011;54709;43.614;1.576;2023-01-05T07:09:31;15.68;;;10.10;;
67904;SDS011;54709;43.614;1.576;2023-01-05T07:11:56;15.52;;;10.15;;
67904;SDS011;54709;43.614;1.576;2023-01-05T07:14:22;15.82;;;9.85;;
67904;SDS011;54709;43.614;1.576;2023-01-05T07:16:47;17.33;;;10.15;;
67904;SDS011;54709;43.614;1.576;2023-01-05T07:19:12;15.63;;;10.43;;
67904;SDS011;54709;43.614;1.576;2023-01-05T07:21:38;13.02;;;9.70;;
67904;SDS011;54709;43.614;1.576;2023-01-05T07:24:03;15.38;;;10.65;;
67904;SDS011;54709;43.614;1.576;2023-01-05T07:26:29;17.15;;;11.68;;
67904;SDS011;54709;43.614;1.576;2023-01-05T07:28:54;18.73;;;11.05;;
67904;SDS011;54709;43.614;1.576;2023-01-05T07:31:20;17.60;;;11.60;;
67904;SDS011;54709;43.614;1.576;2023-01-05T07:33:45;14.98;;;10.55;;
67904;SDS011;54709;43.614;1.576;2023-01-05T07:36:11;15.95;;;11.23;;
67904;SDS011;54709;43.614;1.576;2023-01-05T07:38:37;16.40;;;11.63;;
67904;SDS011;54709;43.614;1.576;2023-01-05T07:41:02;16.58;;;11.25;;
67904;SDS011;54709;43.614;1.576;2023-01-05T07:43:28;16.80;;;11.57;;
67904;SDS011;54709;43.614;1.576;2023-01-05T07:45:58;13.65;;;10.35;;
67904;SDS011;54709;43.614;1.576;2023-01-05T07:48:23;16.90;;;10.93;;
67904;SDS011;54709;43.614;1.576;2023-01-05T07:50:49;17.90;;;11.52;;
67904;SDS011;54709;43.614;1.576;2023-01-05T07:53:14;17.33;;;11.52;;
67904;SDS011;54709;43.614;1.576;2023-01-05T07:55:40;16.25;;;10.82;;
67904;SDS011;54709;43.614;1.576;2023-01-05T07:58:05;13.90;;;10.25;;
67904;SDS011;54709;43.614;1.576;2023-01-05T08:00:30;15.48;;;9.82;;
67904;SDS011;54709;43.614;1.576;2023-01-05T08:02:56;13.63;;;8.93;;
67904;SDS011;54709;43.614;1.576;2023-01-05T08:05:21;12.73;;;8.55;;
67904;SDS011;54709;43.614;1.576;2023-01-05T08:07:47;12.85;;;8.90;;
67904;SDS011;54709;43.614;1.576;2023-01-05T08:10:12;12.43;;;9.93;;
67904;SDS011;54709;43.614;1.576;2023-01-05T08:12:52;15.15;;;9.43;;
67904;SDS011;54709;43.614;1.576;2023-01-05T08:15:37;11.55;;;8.57;;
67904;SDS011;54709;43.614;1.576;2023-01-05T08:18:03;13.52;;;8.38;;
67904;SDS011;54709;43.614;1.576;2023-01-05T08:20:29;15.65;;;9.13;;
67904;SDS011;54709;43.614;1.576;2023-01-05T08:22:54;13.02;;;9.43;;
67904;SDS011;54709;43.614;1.576;2023-01-05T08:25:19;12.50;;;9.02;;
67904;SDS011;54709;43.614;1.576;2023-01-05T08:27:45;17.25;;;9.63;;
67904;SDS011;54709;43.614;1.576;2023-01-05T08:30:11;12.40;;;9.43;;
67904;SDS011;54709;43.614;1.576;2023-01-05T08:32:37;14.30;;;9.23;;
67904;SDS011;54709;43.614;1.576;2023-01-05T08:35:03;15.40;;;9.18;;
67904;SDS011;54709;43.614;1.576;2023-01-05T08:37:30;12.55;;;9.23;;
67904;SDS011;54709;43.614;1.576;2023-01-05T08:39:55;17.30;;;10.45;;
67904;SDS011;54709;43.614;1.576;2023-01-05T08:42:21;14.93;;;10.25;;
67904;SDS011;54709;43.614;1.576;2023-01-05T08:44:47;14.68;;;10.90;;
67904;SDS011;54709;43.614;1.576;2023-01-05T08:47:14;15.90;;;10.60;;
67904;SDS011;54709;43.614;1.576;2023-01-05T08:49:39;13.93;;;10.52;;
67904;SDS011;54709;43.614;1.576;2023-01-05T08:52:05;16.15;;;11.45;;
67904;SDS011;54709;43.614;1.576;2023-01-05T08:54:32;15.63;;;11.10;;
67904;SDS011;54709;43.614;1.576;2023-01-05T08:56:57;14.45;;;10.65;;
67904;SDS011;54709;43.614;1.576;2023-01-05T08:59:23;14.98;;;10.80;;
67904;SDS011;54709;43.614;1.576;2023-01-05T09:01:48;13.73;;;10.55;;
67904;SDS011;54709;43.614;1.576;2023-01-05T09:04:14;15.45;;;11.40;;
67904;SDS011;54709;43.614;1.576;2023-01-05T09:06:39;16.38;;;11.50;;
67904;SDS011;54709;43.614;1.576;2023-01-05T09:09:05;15.65;;;11.25;;
67904;SDS011;54709;43.614;1.576;2023-01-05T09:11:31;19.17;;;12.90;;
67904;SDS011;54709;43.614;1.576;2023-01-05T09:13:59;16.63;;;12.40;;
67904;SDS011;54709;43.614;1.576;2023-01-05T09:16:29;17.08;;;12.48;;
67904;SDS011;54709;43.614;1.576;2023-01-05T09:18:56;16.63;;;12.25;;
67904;SDS011;54709;43.614;1.576;2023-01-05T09:21:23;17.25;;;12.50;;
67904;SDS011;54709;43.614;1.576;2023-01-05T09:23:48;17.55;;;11.85;;
67904;SDS011;54709;43.614;1.576;2023-01-05T09:26:14;17.88;;;12.50;;
67904;SDS011;54709;43.614;1.576;2023-01-05T09:28:40;14.38;;;10.95;;
67904;SDS011;54709;43.614;1.576;2023-01-05T09:31:07;14.75;;;11.00;;
67904;SDS011;54709;43.614;1.576;2023-01-05T09:33:40;13.93;;;10.43;;
67904;SDS011;54709;43.614;1.576;2023-01-05T09:36:06;14.27;;;10.73;;
67904;SDS011;54709;43.614;1.576;2023-01-05T09:38:32;14.85;;;10.90;;
67904;SDS011;54709;43.614;1.576;2023-01-05T09:41:03;15.90;;;11.77;;
67904;SDS011;54709;43.614;1.576;2023-01-05T09:43:36;17.33;;;12.10;;
67904;SDS011;54709;43.614;1.576;2023-01-05T09:46:05;14.35;;;10.95;;
67904;SDS011;54709;43.614;1.576;2023-01-05T09:48:39;15.25;;;10.90;;
67904;SDS011;54709;43.614;1.576;2023-01-05T09:51:06;14.70;;;11.05;;
67904;SDS011;54709;43.614;1.576;2023-01-05T09:53:32;14.13;;;10.57;;
67904;SDS011;54709;43.614;1.576;2023-01-05T09:55:58;17.60;;;11.43;;
67904;SDS011;54709;43.614;1.576;2023-01-05T09:58:25;16.85;;;10.80;;
67904;SDS011;54709;43.614;1.576;2023-01-05T10:01:12;14.45;;;10.63;;
67904;SDS011;54709;43.614;1.576;2023-01-05T10:03:41;16.25;;;10.00;;
67904;SDS011;54709;43.614;1.576;2023-01-05T10:06:35;18.73;;;9.27;;
67904;SDS011;54709;43.614;1.576;2023-01-05T10:09:03;15.57;;;9.35;;
67904;SDS011;54709;43.614;1.576;2023-01-05T10:11:37;13.50;;;9.90;;
67904;SDS011;54709;43.614;1.576;2023-01-05T10:14:45;14.32;;;10.45;;
67904;SDS011;54709;43.614;1.576;2023-01-05T10:17:15;16.20;;;11.27;;
67904;SDS011;54709;43.614;1.576;2023-01-05T10:19:43;18.42;;;11.98;;
67904;SDS011;54709;43.614;1.576;2023-01-05T10:22:21;16.88;;;11.98;;
67904;SDS011;54709;43.614;1.576;2023-01-05T10:25:08;20.48;;;11.95;;
67904;SDS011;54709;43.614;1.576;2023-01-05T10:33:01;14.35;;;10.63;;
67904;SDS011;54709;43.614;1.576;2023-01-05T10:41:08;12.30;;;8.57;;
67904;SDS011;54709;43.614;1.576;2023-01-05T10:46:28;12.90;;;8.68;;
67904;SDS011;54709;43.614;1.576;2023-01-05T10:48:53;14.90;;;10.20;;
67904;SDS011;54709;43.614;1.576;2023-01-05T10:51:19;13.15;;;10.35;;
67904;SDS011;54709;43.614;1.576;2023-01-05T10:53:45;17.50;;;9.50;;
67904;SDS011;54709;43.614;1.576;2023-01-05T10:56:14;12.80;;;9.57;;
67904;SDS011;54709;43.614;1.576;2023-01-05T10:58:45;8.32;;;6.68;;
67904;SDS011;54709;43.614;1.576;2023-01-05T11:03:51;9.68;;;5.82;;
67904;SDS011;54709;43.614;1.576;2023-01-05T11:06:19;8.80;;;5.85;;
67904;SDS011;54709;43.614;1.576;2023-01-05T11:08:46;8.05;;;5.88;;
67904;SDS011;54709;43.614;1.576;2023-01-05T11:11:19;10.10;;;6.35;;
67904;SDS011;54709;43.614;1.576;2023-01-05T11:13:49;14.18;;;7.28;;
67904;SDS011;54709;43.614;1.576;2023-01-05T11:16:18;9.75;;;6.85;;
67904;SDS011;54709;43.614;1.576;2023-01-05T11:31:36;7.00;;;4.05;;
67904;SDS011;54709;43.614;1.576;2023-01-05T11:37:26;7.38;;;3.95;;
67904;SDS011;54709;43.614;1.576;2023-01-05T11:47:33;5.50;;;4.10;;
67904;SDS011;54709;43.614;1.576;2023-01-05T11:50:13;5.47;;;3.90;;
67904;SDS011;54709;43.614;1.576;2023-01-05T11:52:44;5.13;;;3.70;;
67904;SDS011;54709;43.614;1.576;2023-01-05T11:57:52;6.65;;;4.20;;
67904;SDS011;54709;43.614;1.576;2023-01-05T12:00:25;6.97;;;4.72;;
67904;SDS011;54709;43.614;1.576;2023-01-05T12:08:22;9.60;;;5.10;;
67904;SDS011;54709;43.614;1.576;2023-01-05T12:21:36;6.90;;;3.63;;
67904;SDS011;54709;43.614;1.576;2023-01-05T12:34:20;6.40;;;2.78;;
67904;SDS011;54709;43.614;1.576;2023-01-05T12:39:54;6.35;;;2.92;;
67904;SDS011;54709;43.614;1.576;2023-01-05T12:47:50;7.88;;;4.13;;
67904;SDS011;54709;43.614;1.576;2023-01-05T12:52:53;8.60;;;4.30;;
67904;SDS011;54709;43.614;1.576;2023-01-05T12:55:25;6.00;;;3.75;;
67904;SDS011;54709;43.614;1.576;2023-01-05T12:57:56;7.13;;;4.32;;
67904;SDS011;54709;43.614;1.576;2023-01-05T13:00:27;9.75;;;5.95;;
67904;SDS011;54709;43.614;1.576;2023-01-05T13:02:57;6.22;;;3.88;;
67904;SDS011;54709;43.614;1.576;2023-01-05T13:05:33;8.68;;;3.75;;
67904;SDS011;54709;43.614;1.576;2023-01-05T13:08:04;5.03;;;3.20;;
67904;SDS011;54709;43.614;1.576;2023-01-05T13:13:23;8.85;;;2.88;;
67904;SDS011;54709;43.614;1.576;2023-01-05T13:18:46;5.00;;;3.20;;
67904;SDS011;54709;43.614;1.576;2023-01-05T13:21:14;6.37;;;3.27;;
67904;SDS011;54709;43.614;1.576;2023-01-05T13:23:47;4.63;;;2.80;;
67904;SDS011;54709;43.614;1.576;2023-01-05T13:26:17;5.88;;;2.60;;
67904;SDS011;54709;43.614;1.576;2023-01-05T13:28:47;5.35;;;2.47;;
67904;SDS011;54709;43.614;1.576;2023-01-05T13:34:19;4.47;;;2.58;;
67904;SDS011;54709;43.614;1.576;2023-01-05T13:45:13;4.75;;;2.53;;
67904;SDS011;54709;43.614;1.576;2023-01-05T13:51:03;3.70;;;2.03;;
67904;SDS011;54709;43.614;1.576;2023-01-05T13:53:50;3.10;;;1.90;;
67904;SDS011;54709;43.614;1.576;2023-01-05T13:56:26;4.63;;;2.85;;
67904;SDS011;54709;43.614;1.576;2023-01-05T14:04:19;3.65;;;1.50;;
67904;SDS011;54709;43.614;1.576;2023-01-05T14:06:48;2.75;;;1.40;;
67904;SDS011;54709;43.614;1.576;2023-01-05T14:09:33;3.03;;;1.70;;
67904;SDS011;54709;43.614;1.576;2023-01-05T14:20:29;6.00;;;2.33;;
67904;SDS011;54709;43.614;1.576;2023-01-05T14:22:57;7.47;;;3.53;;
67904;SDS011;54709;43.614;1.576;2023-01-05T14:28:20;6.88;;;3.75;;
67904;SDS011;54709;43.614;1.576;2023-01-05T14:30:48;4.43;;;2.70;;
67904;SDS011;54709;43.614;1.576;2023-01-05T14:33:15;5.70;;;3.50;;
67904;SDS011;54709;43.614;1.576;2023-01-05T14:35:42;6.25;;;2.75;;
67904;SDS011;54709;43.614;1.576;2023-01-05T14:38:21;9.07;;;4.45;;
67904;SDS011;54709;43.614;1.576;2023-01-05T14:40:49;5.85;;;3.00;;
67904;SDS011;54709;43.614;1.576;2023-01-05T14:43:31;5.25;;;2.75;;
67904;SDS011;54709;43.614;1.576;2023-01-05T14:46:02;3.88;;;2.45;;
67904;SDS011;54709;43.614;1.576;2023-01-05T14:48:33;4.75;;;2.53;;
67904;SDS011;54709;43.614;1.576;2023-01-05T14:51:15;7.50;;;3.13;;
67904;SDS011;54709;43.614;1.576;2023-01-05T14:53:44;4.65;;;2.15;;
67904;SDS011;54709;43.614;1.576;2023-01-05T15:03:47;5.57;;;2.45;;
67904;SDS011;54709;43.614;1.576;2023-01-05T15:17:53;6.78;;;3.20;;
67904;SDS011;54709;43.614;1.576;2023-01-05T15:23:31;4.88;;;2.72;;
67904;SDS011;54709;43.614;1.576;2023-01-05T15:32:20;5.82;;;2.50;;
67904;SDS011;54709;43.614;1.576;2023-01-05T15:35:02;3.97;;;2.40;;
67904;SDS011;54709;43.614;1.576;2023-01-05T15:37:34;3.42;;;1.50;;
67904;SDS011;54709;43.614;1.576;2023-01-05T15:40:06;3.63;;;1.83;;
67904;SDS011;54709;43.614;1.576;2023-01-05T15:42:50;6.40;;;2.50;;
67904;SDS011;54709;43.614;1.576;2023-01-05T15:48:04;3.22;;;1.90;;
67904;SDS011;54709;43.614;1.576;2023-01-05T15:50:38;5.03;;;1.98;;
67904;SDS011;54709;43.614;1.576;2023-01-05T15:53:18;5.20;;;2.20;;
67904;SDS011;54709;43.614;1.576;2023-01-05T15:55:57;4.60;;;2.50;;
67904;SDS011;54709;43.614;1.576;2023-01-05T15:58:24;6.00;;;2.45;;
67904;SDS011;54709;43.614;1.576;2023-01-05T16:03:33;4.75;;;2.45;;
67904;SDS011;54709;43.614;1.576;2023-01-05T16:06:01;7.60;;;2.55;;
67904;SDS011;54709;43.614;1.576;2023-01-05T16:08:30;7.40;;;3.00;;
67904;SDS011;54709;43.614;1.576;2023-01-05T16:10:57;6.40;;;2.70;;
67904;SDS011;54709;43.614;1.576;2023-01-05T16:16:15;5.97;;;2.95;;
67904;SDS011;54709;43.614;1.576;2023-01-05T16:18:50;4.88;;;2.40;;
67904;SDS011;54709;43.614;1.576;2023-01-05T16:21:35;7.18;;;2.30;;
67904;SDS011;54709;43.614;1.576;2023-01-05T16:24:23;8.50;;;3.65;;
67904;SDS011;54709;43.614;1.576;2023-01-05T16:26:53;4.38;;;2.50;;
67904;SDS011;54709;43.614;1.576;2023-01-05T16:29:19;4.38;;;2.33;;
67904;SDS011;54709;43.614;1.576;2023-01-05T16:31:52;7.32;;;2.70;;
67904;SDS011;54709;43.614;1.576;2023-01-05T16:34:19;5.20;;;2.75;;
67904;SDS011;54709;43.614;1.576;2023-01-05T16:37:03;5.50;;;2.70;;
67904;SDS011;54709;43.614;1.576;2023-01-05T16:39:31;4.65;;;2.25;;
67904;SDS011;54709;43.614;1.576;2023-01-05T16:42:03;5.30;;;2.40;;
67904;SDS011;54709;43.614;1.576;2023-01-05T16:44:52;8.13;;;2.60;;
67904;SDS011;54709;43.614;1.576;2023-01-05T16:47:34;6.13;;;3.00;;
67904;SDS011;54709;43.614;1.576;2023-01-05T16:50:05;6.03;;;2.97;;
67904;SDS011;54709;43.614;1.576;2023-01-05T16:52:57;10.38;;;4.00;;
67904;SDS011;54709;43.614;1.576;2023-01-05T16:55:36;9.32;;;3.75;;
67904;SDS011;54709;43.614;1.576;2023-01-05T16:58:03;7.60;;;4.10;;
67904;SDS011;54709;43.614;1.576;2023-01-05T17:00:35;5.63;;;4.22;;
67904;SDS011;54709;43.614;1.576;2023-01-05T17:03:02;6.95;;;4.28;;
67904;SDS011;54709;43.614;1.576;2023-01-05T17:05:49;6.53;;;4.13;;
67904;SDS011;54709;43.614;1.576;2023-01-05T17:08:19;5.43;;;4.15;;
67904;SDS011;54709;43.614;1.576;2023-01-05T17:10:46;7.85;;;4.20;;
67904;SDS011;54709;43.614;1.576;2023-01-05T17:13:16;5.57;;;3.80;;
67904;SDS011;54709;43.614;1.576;2023-01-05T17:15:44;6.57;;;4.32;;
67904;SDS011;54709;43.614;1.576;2023-01-05T17:20:46;11.40;;;6.25;;
67904;SDS011;54709;43.614;1.576;2023-01-05T17:23:22;10.93;;;6.35;;
67904;SDS011;54709;43.614;1.576;2023-01-05T17:25:49;12.02;;;7.40;;
67904;SDS011;54709;43.614;1.576;2023-01-05T17:28:16;20.20;;;10.32;;
67904;SDS011;54709;43.614;1.576;2023-01-05T17:30:42;18.30;;;9.45;;
67904;SDS011;54709;43.614;1.576;2023-01-05T17:33:08;18.27;;;10.20;;
67904;SDS011;54709;43.614;1.576;2023-01-05T17:35:34;13.02;;;8.13;;
67904;SDS011;54709;43.614;1.576;2023-01-05T17:38:00;14.43;;;8.50;;
67904;SDS011;54709;43.614;1.576;2023-01-05T17:40:26;11.77;;;7.78;;
67904;SDS011;54709;43.614;1.576;2023-01-05T17:42:52;14.65;;;9.18;;
67904;SDS011;54709;43.614;1.576;2023-01-05T17:45:19;16.10;;;7.68;;
67904;SDS011;54709;43.614;1.576;2023-01-05T17:47:46;12.90;;;6.80;;
67904;SDS011;54709;43.614;1.576;2023-01-05T17:50:16;11.35;;;6.28;;